sensor_id;sensor_type;location;lat;lon;timestamp;pressure;altitude;pressure_sealevel;temperature;humidity
67015;BME280;1033;52.560;13.374;2023-08-17T00:00:20;101524.63;;;19.85;92.00
67015;BME280;1033;52.560;13.374;2023-08-17T00:02:49;101530.72;;;19.87;91.99
67015;BME280;1033;52.560;13.374;2023-08-17T00:05:19;101528.41;;;19.79;92.56
67015;BME280;1033;52.560;13.374;2023-08-17T00:07:49;101520.72;;;19.81;92.36
67015;BME280;1033;52.560;13.374;2023-08-17T00:10:19;101511.66;;;19.80;92.42
67015;BME280;1033;52.560;13.374;2023-08-17T00:12:48;101509.16;;;19.79;92.35
67015;BME280;1033;52.560;13.374;2023-08-17T00:15:17;101499.16;;;19.73;93.02
67015;BME280;1033;52.560;13.374;2023-08-17T00:17:46;101499.41;;;19.71;92.97
67015;BME280;1033;52.560;13.374;2023-08-17T00:20:16;101489.16;;;19.67;93.48
67015;BME280;1033;52.560;13.374;2023-08-17T00:22:46;101477.78;;;19.58;94.15
67015;BME280;1033;52.560;13.374;2023-08-17T00:25:17;101474.88;;;19.65;93.79
67015;BME280;1033;52.560;13.374;2023-08-17T00:27:47;101476.44;;;19.61;94.05
67015;BME280;1033;52.560;13.374;2023-08-17T00:30:17;101475.25;;;19.57;94.17
67015;BME280;1033;52.560;13.374;2023-08-17T00:32:47;101470.78;;;19.50;94.73
67015;BME280;1033;52.560;13.374;2023-08-17T00:35:16;101474.00;;;19.47;94.98
67015;BME280;1033;52.560;13.374;2023-08-17T00:37:46;101481.03;;;19.43;95.08
67015;BME280;1033;52.560;13.374;2023-08-17T00:40:16;101477.69;;;19.41;95.44
67015;BME280;1033;52.560;13.374;2023-08-17T00:42:47;101471.88;;;19.38;95.91
67015;BME280;1033;52.560;13.374;2023-08-17T00:45:18;101465.56;;;19.37;95.91
67015;BME280;1033;52.560;13.374;2023-08-17T00:47:48;101469.78;;;19.28;96.63
67015;BME280;1033;52.560;13.374;2023-08-17T00:50:17;101472.50;;;19.28;96.79
67015;BME280;1033;52.560;13.374;2023-08-17T00:52:47;101471.34;;;19.24;97.08
67015;BME280;1033;52.560;13.374;2023-08-17T00:55:18;101464.94;;;19.19;97.42
67015;BME280;1033;52.560;13.374;2023-08-17T00:57:48;101471.59;;;19.23;97.38
67015;BME280;1033;52.560;13.374;2023-08-17T01:00:17;101477.81;;;19.18;97.79
67015;BME280;1033;52.560;13.374;2023-08-17T01:02:47;101482.81;;;19.21;97.47
67015;BME280;1033;52.560;13.374;2023-08-17T01:05:17;101478.94;;;19.05;98.48
67015;BME280;1033;52.560;13.374;2023-08-17T01:07:48;101492.88;;;19.04;99.13
67015;BME280;1033;52.560;13.374;2023-08-17T01:10:18;101478.50;;;18.97;99.27
67015;BME280;1033;52.560;13.374;2023-08-17T01:12:53;101481.91;;;19.04;98.82
67015;BME280;1033;52.560;13.374;2023-08-17T01:15:31;101476.94;;;19.01;98.93
67015;BME280;1033;52.560;13.374;2023-08-17T01:18:17;101470.28;;;18.97;98.98
67015;BME280;1033;52.560;13.374;2023-08-17T01:20:50;101472.03;;;19.03;98.93
67015;BME280;1033;52.560;13.374;2023-08-17T01:23:24;101471.28;;;19.07;98.19
67015;BME280;1033;52.560;13.374;2023-08-17T01:25:53;101459.97;;;19.04;98.31
67015;BME280;1033;52.560;13.374;2023-08-17T01:28:25;101453.31;;;19.00;98.52
67015;BME280;1033;52.560;13.374;2023-08-17T01:30:58;101451.31;;;18.95;98.69
67015;BME280;1033;52.560;13.374;2023-08-17T01:33:33;101465.03;;;18.95;98.78
67015;BME280;1033;52.560;13.374;2023-08-17T01:36:10;101456.09;;;18.88;99.04
67015;BME280;1033;52.560;13.374;2023-08-17T01:38:43;101451.94;;;18.86;99.01
67015;BME280;1033;52.560;13.374;2023-08-17T01:41:13;101465.88;;;18.84;99.16
67015;BME280;1033;52.560;13.374;2023-08-17T01:43:44;101466.72;;;18.85;99.03
67015;BME280;1033;52.560;13.374;2023-08-17T01:46:16;101473.03;;;18.85;99.21
67015;BME280;1033;52.560;13.374;2023-08-17T01:48:46;101470.41;;;18.79;99.04
67015;BME280;1033;52.560;13.374;2023-08-17T01:51:18;101464.94;;;18.79;99.38
67015;BME280;1033;52.560;13.374;2023-08-17T01:53:49;101465.66;;;18.74;99.64
67015;BME280;1033;52.560;13.374;2023-08-17T01:56:19;101467.84;;;18.72;99.83
67015;BME280;1033;52.560;13.374;2023-08-17T01:58:48;101472.16;;;18.68;100.00
67015;BME280;1033;52.560;13.374;2023-08-17T02:01:17;101476.28;;;18.71;100.00
67015;BME280;1033;52.560;13.374;2023-08-17T02:03:46;101476.41;;;18.64;100.00
67015;BME280;1033;52.560;13.374;2023-08-17T02:06:16;101474.16;;;18.61;100.00
67015;BME280;1033;52.560;13.374;2023-08-17T02:08:45;101478.69;;;18.55;100.00
67015;BME280;1033;52.560;13.374;2023-08-17T02:11:16;101477.41;;;18.58;100.00
67015;BME280;1033;52.560;13.374;2023-08-17T02:13:45;101472.75;;;18.58;100.00
67015;BME280;1033;52.560;13.374;2023-08-17T02:16:15;101477.03;;;18.54;100.00
67015;BME280;1033;52.560;13.374;2023-08-17T02:18:44;101478.69;;;18.55;100.00
67015;BME280;1033;52.560;13.374;2023-08-17T02:21:14;101473.47;;;18.54;100.00
67015;BME280;1033;52.560;13.374;2023-08-17T02:23:43;101475.72;;;18.57;100.00
67015;BME280;1033;52.560;13.374;2023-08-17T02:26:12;101480.16;;;18.58;100.00
67015;BME280;1033;52.560;13.374;2023-08-17T02:28:43;101476.22;;;18.54;100.00
67015;BME280;1033;52.560;13.374;2023-08-17T02:31:12;101474.75;;;18.51;100.00
67015;BME280;1033;52.560;13.374;2023-08-17T02:33:41;101467.28;;;18.58;100.00
67015;BME280;1033;52.560;13.374;2023-08-17T02:36:10;101469.03;;;18.53;100.00
67015;BME280;1033;52.560;13.374;2023-08-17T02:38:40;101455.78;;;18.50;100.00
67015;BME280;1033;52.560;13.374;2023-08-17T02:41:10;101454.38;;;18.47;100.00
67015;BME280;1033;52.560;13.374;2023-08-17T02:43:39;101448.41;;;18.50;99.86
67015;BME280;1033;52.560;13.374;2023-08-17T02:46:09;101446.06;;;18.42;99.80
67015;BME280;1033;52.560;13.374;2023-08-17T02:48:39;101456.19;;;18.53;98.75
67015;BME280;1033;52.560;13.374;2023-08-17T02:51:08;101448.91;;;18.47;98.87
67015;BME280;1033;52.560;13.374;2023-08-17T02:53:38;101453.88;;;18.50;98.22
67015;BME280;1033;52.560;13.374;2023-08-17T02:56:07;101452.22;;;18.49;97.91
67015;BME280;1033;52.560;13.374;2023-08-17T02:58:39;101440.06;;;18.45;97.91
67015;BME280;1033;52.560;13.374;2023-08-17T03:01:11;101443.66;;;18.46;97.41
67015;BME280;1033;52.560;13.374;2023-08-17T03:03:41;101442.94;;;18.50;96.75
67015;BME280;1033;52.560;13.374;2023-08-17T03:06:11;101453.22;;;18.43;97.13
67015;BME280;1033;52.560;13.374;2023-08-17T03:08:42;101443.31;;;18.42;96.28
67015;BME280;1033;52.560;13.374;2023-08-17T03:11:11;101449.28;;;18.39;96.50
67015;BME280;1033;52.560;13.374;2023-08-17T03:13:40;101454.63;;;18.46;95.16
67015;BME280;1033;52.560;13.374;2023-08-17T03:16:12;101452.13;;;18.44;94.63
67015;BME280;1033;52.560;13.374;2023-08-17T03:18:42;101461.31;;;18.38;94.92
67015;BME280;1033;52.560;13.374;2023-08-17T03:21:13;101452.13;;;18.44;94.23
67015;BME280;1033;52.560;13.374;2023-08-17T03:23:42;101453.78;;;18.45;93.50
67015;BME280;1033;52.560;13.374;2023-08-17T03:26:11;101448.44;;;18.39;93.38
67015;BME280;1033;52.560;13.374;2023-08-17T03:28:41;101449.63;;;18.43;92.23
67015;BME280;1033;52.560;13.374;2023-08-17T03:31:12;101444.72;;;18.45;91.91
67015;BME280;1033;52.560;13.374;2023-08-17T03:33:45;101439.25;;;18.45;91.57
67015;BME280;1033;52.560;13.374;2023-08-17T03:36:14;101437.22;;;18.40;91.41
67015;BME280;1033;52.560;13.374;2023-08-17T03:38:44;101436.88;;;18.37;90.89
67015;BME280;1033;52.560;13.374;2023-08-17T03:41:12;101436.31;;;18.35;90.94
67015;BME280;1033;52.560;13.374;2023-08-17T03:43:43;101437.50;;;18.39;89.95
67015;BME280;1033;52.560;13.374;2023-08-17T03:46:13;101435.59;;;18.39;89.44
67015;BME280;1033;52.560;13.374;2023-08-17T03:48:43;101449.75;;;18.48;88.49
67015;BME280;1033;52.560;13.374;2023-08-17T03:51:12;101456.06;;;18.48;87.79
67015;BME280;1033;52.560;13.374;2023-08-17T03:53:41;101450.56;;;18.48;87.28
67015;BME280;1033;52.560;13.374;2023-08-17T03:56:10;101446.75;;;18.49;86.85
67015;BME280;1033;52.560;13.374;2023-08-17T03:58:40;101440.91;;;18.46;86.95
67015;BME280;1033;52.560;13.374;2023-08-17T04:01:12;101438.91;;;18.41;86.76
67015;BME280;1033;52.560;13.374;2023-08-17T04:03:42;101436.38;;;18.40;86.33
67015;BME280;1033;52.560;13.374;2023-08-17T04:06:11;101434.59;;;18.45;85.55
67015;BME280;1033;52.560;13.374;2023-08-17T04:08:42;101431.63;;;18.47;84.63
67015;BME280;1033;52.560;13.374;2023-08-17T04:11:11;101430.28;;;18.49;84.24
67015;BME280;1033;52.560;13.374;2023-08-17T04:13:40;101427.22;;;18.57;83.47
67015;BME280;1033;52.560;13.374;2023-08-17T04:16:09;101425.56;;;18.56;83.18
67015;BME280;1033;52.560;13.374;2023-08-17T04:18:40;101421.25;;;18.60;83.26
67015;BME280;1033;52.560;13.374;2023-08-17T04:21:09;101430.13;;;19.07;80.64
67015;BME280;1033;52.560;13.374;2023-08-17T04:23:38;101432.50;;;19.61;78.00
67015;BME280;1033;52.560;13.374;2023-08-17T04:26:07;101434.31;;;20.05;75.31
67015;BME280;1033;52.560;13.374;2023-08-17T04:28:36;101431.09;;;20.08;74.30
67015;BME280;1033;52.560;13.374;2023-08-17T04:31:06;101429.38;;;20.41;72.57
67015;BME280;1033;52.560;13.374;2023-08-17T04:33:40;101434.94;;;20.46;72.22
67015;BME280;1033;52.560;13.374;2023-08-17T04:36:13;101427.16;;;20.81;70.75
67015;BME280;1033;52.560;13.374;2023-08-17T04:38:42;101427.09;;;21.03;69.93
67015;BME280;1033;52.560;13.374;2023-08-17T04:41:11;101430.84;;;21.13;68.77
67015;BME280;1033;52.560;13.374;2023-08-17T04:43:40;101423.03;;;21.05;69.61
67015;BME280;1033;52.560;13.374;2023-08-17T04:46:10;101424.28;;;21.46;67.84
67015;BME280;1033;52.560;13.374;2023-08-17T04:48:42;101428.28;;;21.65;66.69
67015;BME280;1033;52.560;13.374;2023-08-17T04:51:12;101420.72;;;21.51;66.74
67015;BME280;1033;52.560;13.374;2023-08-17T04:53:44;101428.75;;;21.89;65.94
67015;BME280;1033;52.560;13.374;2023-08-17T04:56:13;101429.28;;;22.23;64.54
67015;BME280;1033;52.560;13.374;2023-08-17T04:58:42;101436.31;;;22.46;64.02
67015;BME280;1033;52.560;13.374;2023-08-17T05:01:13;101445.88;;;22.80;62.25
67015;BME280;1033;52.560;13.374;2023-08-17T05:03:44;101444.09;;;22.59;62.79
67015;BME280;1033;52.560;13.374;2023-08-17T05:06:13;101444.50;;;22.78;62.37
67015;BME280;1033;52.560;13.374;2023-08-17T05:08:43;101442.94;;;22.45;62.72
67015;BME280;1033;52.560;13.374;2023-08-17T05:11:12;101444.84;;;21.97;64.70
67015;BME280;1033;52.560;13.374;2023-08-17T05:13:42;101444.69;;;22.19;64.23
67015;BME280;1033;52.560;13.374;2023-08-17T05:16:11;101452.44;;;22.17;64.32
67015;BME280;1033;52.560;13.374;2023-08-17T05:18:40;101453.88;;;21.61;66.50
67015;BME280;1033;52.560;13.374;2023-08-17T05:21:14;101455.59;;;21.13;68.37
67015;BME280;1033;52.560;13.374;2023-08-17T05:23:43;101449.03;;;20.71;70.14
67015;BME280;1033;52.560;13.374;2023-08-17T05:26:13;101454.03;;;20.19;72.36
67015;BME280;1033;52.560;13.374;2023-08-17T05:28:44;101454.97;;;19.91;74.08
67015;BME280;1033;52.560;13.374;2023-08-17T05:31:13;101456.88;;;19.90;74.22
67015;BME280;1033;52.560;13.374;2023-08-17T05:33:46;101458.16;;;19.83;75.02
67015;BME280;1033;52.560;13.374;2023-08-17T05:36:18;101448.66;;;19.90;74.48
67015;BME280;1033;52.560;13.374;2023-08-17T05:38:47;101444.66;;;19.81;75.04
67015;BME280;1033;52.560;13.374;2023-08-17T05:41:16;101438.00;;;19.77;75.88
67015;BME280;1033;52.560;13.374;2023-08-17T05:43:45;101435.50;;;19.76;75.87
67015;BME280;1033;52.560;13.374;2023-08-17T05:46:16;101438.84;;;19.78;75.70
67015;BME280;1033;52.560;13.374;2023-08-17T05:48:46;101440.84;;;19.82;75.88
67015;BME280;1033;52.560;13.374;2023-08-17T05:51:17;101446.50;;;19.92;75.51
67015;BME280;1033;52.560;13.374;2023-08-17T05:53:46;101446.81;;;19.96;75.09
67015;BME280;1033;52.560;13.374;2023-08-17T05:56:15;101463.63;;;20.16;74.61
67015;BME280;1033;52.560;13.374;2023-08-17T05:58:45;101470.28;;;20.37;73.79
67015;BME280;1033;52.560;13.374;2023-08-17T06:01:14;101479.91;;;20.56;73.59
67015;BME280;1033;52.560;13.374;2023-08-17T06:03:44;101496.72;;;20.60;72.16
67015;BME280;1033;52.560;13.374;2023-08-17T06:06:13;101511.66;;;20.86;71.92
67015;BME280;1033;52.560;13.374;2023-08-17T06:08:44;101530.41;;;21.10;70.87
67015;BME280;1033;52.560;13.374;2023-08-17T06:11:13;101528.53;;;21.16;72.68
67015;BME280;1033;52.560;13.374;2023-08-17T06:13:42;101550.22;;;21.12;72.56
67015;BME280;1033;52.560;13.374;2023-08-17T06:16:13;101550.75;;;21.09;72.67
67015;BME280;1033;52.560;13.374;2023-08-17T06:18:45;101546.56;;;21.07;73.14
67015;BME280;1033;52.560;13.374;2023-08-17T06:21:14;101533.50;;;20.97;72.97
67015;BME280;1033;52.560;13.374;2023-08-17T06:23:45;101525.25;;;20.97;71.78
67015;BME280;1033;52.560;13.374;2023-08-17T06:26:14;101525.31;;;21.19;72.02
67015;BME280;1033;52.560;13.374;2023-08-17T06:28:43;101524.22;;;21.47;70.64
67015;BME280;1033;52.560;13.374;2023-08-17T06:31:15;101526.16;;;21.73;69.28
67015;BME280;1033;52.560;13.374;2023-08-17T06:33:45;101531.28;;;21.91;67.90
67015;BME280;1033;52.560;13.374;2023-08-17T06:36:14;101518.81;;;22.10;67.01
67015;BME280;1033;52.560;13.374;2023-08-17T06:38:46;101524.22;;;22.00;68.19
67015;BME280;1033;52.560;13.374;2023-08-17T06:41:15;101529.44;;;22.34;66.56
67015;BME280;1033;52.560;13.374;2023-08-17T06:43:44;101516.31;;;22.46;66.15
67015;BME280;1033;52.560;13.374;2023-08-17T06:46:14;101505.25;;;22.41;64.61
67015;BME280;1033;52.560;13.374;2023-08-17T06:48:43;101497.06;;;22.61;64.22
67015;BME280;1033;52.560;13.374;2023-08-17T06:51:13;101501.84;;;22.76;63.74
67015;BME280;1033;52.560;13.374;2023-08-17T06:53:42;101493.63;;;22.86;63.64
67015;BME280;1033;52.560;13.374;2023-08-17T06:56:12;101492.25;;;22.83;63.46
67015;BME280;1033;52.560;13.374;2023-08-17T06:58:41;101498.19;;;22.60;65.47
67015;BME280;1033;52.560;13.374;2023-08-17T07:01:10;101495.16;;;22.67;64.21
67015;BME280;1033;52.560;13.374;2023-08-17T07:03:39;101488.66;;;22.36;65.71
67015;BME280;1033;52.560;13.374;2023-08-17T07:06:09;101487.06;;;22.45;65.74
67015;BME280;1033;52.560;13.374;2023-08-17T07:08:38;101486.00;;;22.56;65.54
67015;BME280;1033;52.560;13.374;2023-08-17T07:11:07;101490.56;;;22.77;65.44
67015;BME280;1033;52.560;13.374;2023-08-17T07:13:39;101494.25;;;22.98;63.76
67015;BME280;1033;52.560;13.374;2023-08-17T07:16:12;101491.81;;;23.12;63.50
67015;BME280;1033;52.560;13.374;2023-08-17T07:18:54;101488.34;;;23.47;62.56
67015;BME280;1033;52.560;13.374;2023-08-17T07:21:23;101499.88;;;23.44;61.53
67015;BME280;1033;52.560;13.374;2023-08-17T07:23:55;101508.47;;;23.42;61.22
67015;BME280;1033;52.560;13.374;2023-08-17T07:26:24;101498.56;;;23.46;60.47
67015;BME280;1033;52.560;13.374;2023-08-17T07:28:54;101506.75;;;23.26;62.21
67015;BME280;1033;52.560;13.374;2023-08-17T07:31:23;101499.31;;;23.26;62.33
67015;BME280;1033;52.560;13.374;2023-08-17T07:33:52;101502.09;;;23.42;62.84
67015;BME280;1033;52.560;13.374;2023-08-17T07:36:21;101499.66;;;23.50;62.10
67015;BME280;1033;52.560;13.374;2023-08-17T07:38:50;101505.75;;;23.52;61.41
67015;BME280;1033;52.560;13.374;2023-08-17T07:41:20;101501.22;;;23.26;62.60
67015;BME280;1033;52.560;13.374;2023-08-17T07:43:49;101503.72;;;22.65;64.34
67015;BME280;1033;52.560;13.374;2023-08-17T07:46:20;101501.84;;;22.71;65.05
67015;BME280;1033;52.560;13.374;2023-08-17T07:48:49;101504.34;;;22.77;64.96
67015;BME280;1033;52.560;13.374;2023-08-17T07:51:18;101510.25;;;23.01;64.89
67015;BME280;1033;52.560;13.374;2023-08-17T07:53:47;101499.22;;;23.06;63.88
67015;BME280;1033;52.560;13.374;2023-08-17T07:56:16;101502.31;;;23.20;62.75
67015;BME280;1033;52.560;13.374;2023-08-17T07:58:45;101497.13;;;23.28;63.60
67015;BME280;1033;52.560;13.374;2023-08-17T08:01:14;101489.44;;;23.46;62.33
67015;BME280;1033;52.560;13.374;2023-08-17T08:03:45;101476.47;;;23.56;62.34
67015;BME280;1033;52.560;13.374;2023-08-17T08:06:14;101477.59;;;23.60;62.56
67015;BME280;1033;52.560;13.374;2023-08-17T08:08:43;101479.22;;;23.46;62.95
67015;BME280;1033;52.560;13.374;2023-08-17T08:11:12;101476.19;;;23.63;62.29
67015;BME280;1033;52.560;13.374;2023-08-17T08:13:41;101472.06;;;23.70;61.92
67015;BME280;1033;52.560;13.374;2023-08-17T08:16:11;101467.38;;;23.61;62.53
67015;BME280;1033;52.560;13.374;2023-08-17T08:18:40;101462.03;;;23.39;63.07
67015;BME280;1033;52.560;13.374;2023-08-17T08:21:11;101463.16;;;23.43;63.77
67015;BME280;1033;52.560;13.374;2023-08-17T08:23:40;101453.56;;;23.61;63.33
67015;BME280;1033;52.560;13.374;2023-08-17T08:26:09;101457.69;;;23.68;63.44
67015;BME280;1033;52.560;13.374;2023-08-17T08:28:38;101453.56;;;23.86;63.26
67015;BME280;1033;52.560;13.374;2023-08-17T08:31:08;101471.78;;;24.17;62.42
67015;BME280;1033;52.560;13.374;2023-08-17T08:33:37;101466.53;;;23.70;63.93
67015;BME280;1033;52.560;13.374;2023-08-17T08:36:06;101449.97;;;23.65;64.50
67015;BME280;1033;52.560;13.374;2023-08-17T08:38:37;101452.47;;;23.67;64.77
67015;BME280;1033;52.560;13.374;2023-08-17T08:41:08;101440.28;;;24.18;63.77
67015;BME280;1033;52.560;13.374;2023-08-17T08:43:39;101438.88;;;24.21;63.19
67015;BME280;1033;52.560;13.374;2023-08-17T08:46:09;101431.69;;;24.15;64.03
67015;BME280;1033;52.560;13.374;2023-08-17T08:48:40;101432.81;;;23.83;65.59
67015;BME280;1033;52.560;13.374;2023-08-17T08:51:14;101437.25;;;23.69;66.96
67015;BME280;1033;52.560;13.374;2023-08-17T08:53:49;101428.69;;;23.66;67.39
67015;BME280;1033;52.560;13.374;2023-08-17T08:56:27;101427.56;;;23.77;67.13
67015;BME280;1033;52.560;13.374;2023-08-17T08:58:58;101428.38;;;23.37;68.36
67015;BME280;1033;52.560;13.374;2023-08-17T09:01:33;101420.91;;;23.27;69.21
67015;BME280;1033;52.560;13.374;2023-08-17T09:04:03;101431.09;;;23.27;69.35
67015;BME280;1033;52.560;13.374;2023-08-17T09:06:34;101421.75;;;23.33;68.49
67015;BME280;1033;52.560;13.374;2023-08-17T09:09:07;101425.31;;;23.18;69.59
67015;BME280;1033;52.560;13.374;2023-08-17T09:11:36;101411.22;;;23.25;69.73
67015;BME280;1033;52.560;13.374;2023-08-17T09:14:11;101414.56;;;23.42;69.86
67015;BME280;1033;52.560;13.374;2023-08-17T09:16:41;101407.94;;;23.48;69.29
67015;BME280;1033;52.560;13.374;2023-08-17T09:19:10;101406.84;;;23.49;69.53
67015;BME280;1033;52.560;13.374;2023-08-17T09:21:40;101409.88;;;23.63;69.17
67015;BME280;1033;52.560;13.374;2023-08-17T09:24:10;101415.69;;;23.76;69.56
67015;BME280;1033;52.560;13.374;2023-08-17T09:26:41;101413.19;;;24.05;67.66
67015;BME280;1033;52.560;13.374;2023-08-17T09:29:20;101412.94;;;23.81;68.03
67015;BME280;1033;52.560;13.374;2023-08-17T09:31:51;101415.13;;;24.00;67.92
67015;BME280;1033;52.560;13.374;2023-08-17T09:34:20;101428.34;;;24.38;66.96
67015;BME280;1033;52.560;13.374;2023-08-17T09:36:49;101429.41;;;24.42;66.50
67015;BME280;1033;52.560;13.374;2023-08-17T09:39:19;101422.81;;;24.38;67.15
67015;BME280;1033;52.560;13.374;2023-08-17T09:41:48;101416.59;;;24.66;65.47
67015;BME280;1033;52.560;13.374;2023-08-17T09:44:17;101423.50;;;24.69;65.27
67015;BME280;1033;52.560;13.374;2023-08-17T09:46:47;101414.00;;;24.95;64.48
67015;BME280;1033;52.560;13.374;2023-08-17T09:49:18;101421.47;;;24.95;64.12
67015;BME280;1033;52.560;13.374;2023-08-17T09:51:47;101428.22;;;24.68;65.49
67015;BME280;1033;52.560;13.374;2023-08-17T09:54:23;101425.53;;;24.48;66.48
67015;BME280;1033;52.560;13.374;2023-08-17T09:56:54;101417.22;;;24.53;66.11
67015;BME280;1033;52.560;13.374;2023-08-17T09:59:24;101421.09;;;24.47;66.15
67015;BME280;1033;52.560;13.374;2023-08-17T10:01:54;101413.28;;;24.59;66.00
67015;BME280;1033;52.560;13.374;2023-08-17T10:04:24;101409.38;;;24.71;65.70
67015;BME280;1033;52.560;13.374;2023-08-17T10:06:58;101411.91;;;24.62;66.17
67015;BME280;1033;52.560;13.374;2023-08-17T10:09:34;101404.94;;;24.75;66.20
67015;BME280;1033;52.560;13.374;2023-08-17T10:12:09;101403.78;;;24.81;65.77
67015;BME280;1033;52.560;13.374;2023-08-17T10:14:45;101404.69;;;24.66;66.17
67015;BME280;1033;52.560;13.374;2023-08-17T10:17:26;101409.47;;;24.50;66.16
67015;BME280;1033;52.560;13.374;2023-08-17T10:19:58;101409.81;;;24.34;66.87
67015;BME280;1033;52.560;13.374;2023-08-17T10:22:44;101407.91;;;24.19;67.81
67015;BME280;1033;52.560;13.374;2023-08-17T10:25:20;101400.72;;;24.18;67.74
67015;BME280;1033;52.560;13.374;2023-08-17T10:27:52;101396.88;;;23.89;69.04
67015;BME280;1033;52.560;13.374;2023-08-17T10:30:26;101405.19;;;23.83;69.57
67015;BME280;1033;52.560;13.374;2023-08-17T10:32:56;101399.38;;;24.00;69.54
67015;BME280;1033;52.560;13.374;2023-08-17T10:35:28;101400.22;;;23.80;69.64
67015;BME280;1033;52.560;13.374;2023-08-17T10:37:59;101401.31;;;23.95;69.47
67015;BME280;1033;52.560;13.374;2023-08-17T10:40:35;101399.34;;;24.05;69.53
67015;BME280;1033;52.560;13.374;2023-08-17T10:43:05;101405.66;;;24.31;69.17
67015;BME280;1033;52.560;13.374;2023-08-17T10:45:35;101401.69;;;24.62;68.12
67015;BME280;1033;52.560;13.374;2023-08-17T10:48:31;101398.81;;;24.88;66.67
67015;BME280;1033;52.560;13.374;2023-08-17T10:51:05;101399.31;;;24.95;65.83
67015;BME280;1033;52.560;13.374;2023-08-17T10:53:38;101396.16;;;24.62;67.36
67015;BME280;1033;52.560;13.374;2023-08-17T10:56:17;101396.16;;;24.62;67.94
67015;BME280;1033;52.560;13.374;2023-08-17T10:58:50;101388.41;;;24.59;67.15
67015;BME280;1033;52.560;13.374;2023-08-17T11:01:34;101395.47;;;24.91;65.83
67015;BME280;1033;52.560;13.374;2023-08-17T11:04:12;101387.06;;;25.45;63.73
67015;BME280;1033;52.560;13.374;2023-08-17T11:06:45;101391.16;;;25.14;64.67
67015;BME280;1033;52.560;13.374;2023-08-17T11:09:18;101396.41;;;25.20;65.29
67015;BME280;1033;52.560;13.374;2023-08-17T11:11:54;101390.19;;;25.33;64.28
67015;BME280;1033;52.560;13.374;2023-08-17T11:14:23;101384.66;;;25.33;64.68
67015;BME280;1033;52.560;13.374;2023-08-17T11:16:53;101385.03;;;25.22;65.05
67015;BME280;1033;52.560;13.374;2023-08-17T11:19:22;101384.53;;;25.48;64.46
67015;BME280;1033;52.560;13.374;2023-08-17T11:21:53;101390.72;;;25.40;64.47
67015;BME280;1033;52.560;13.374;2023-08-17T11:24:23;101386.34;;;25.29;65.15
67015;BME280;1033;52.560;13.374;2023-08-17T11:26:57;101387.69;;;24.98;66.38
67015;BME280;1033;52.560;13.374;2023-08-17T11:29:31;101381.25;;;25.07;66.04
67015;BME280;1033;52.560;13.374;2023-08-17T11:32:01;101386.84;;;25.02;67.18
67015;BME280;1033;52.560;13.374;2023-08-17T11:34:31;101389.25;;;25.09;66.27
67015;BME280;1033;52.560;13.374;2023-08-17T11:37:05;101385.44;;;25.00;66.45
67015;BME280;1033;52.560;13.374;2023-08-17T11:39:34;101384.41;;;24.81;67.55
67015;BME280;1033;52.560;13.374;2023-08-17T11:42:06;101384.94;;;24.93;67.71
67015;BME280;1033;52.560;13.374;2023-08-17T11:44:35;101386.34;;;25.29;66.93
67015;BME280;1033;52.560;13.374;2023-08-17T11:47:05;101383.84;;;25.67;64.77
67015;BME280;1033;52.560;13.374;2023-08-17T11:49:34;101383.66;;;25.87;64.06
67015;BME280;1033;52.560;13.374;2023-08-17T11:52:10;101379.69;;;25.98;63.63
67015;BME280;1033;52.560;13.374;2023-08-17T11:54:43;101378.00;;;25.97;63.50
67015;BME280;1033;52.560;13.374;2023-08-17T11:57:20;101375.72;;;26.33;63.16
67015;BME280;1033;52.560;13.374;2023-08-17T11:59:53;101383.94;;;26.62;62.12
67015;BME280;1033;52.560;13.374;2023-08-17T12:02:24;101389.72;;;26.89;61.10
67015;BME280;1033;52.560;13.374;2023-08-17T12:04:56;101379.00;;;26.77;61.93
67015;BME280;1033;52.560;13.374;2023-08-17T12:07:25;101380.88;;;26.82;61.40
67015;BME280;1033;52.560;13.374;2023-08-17T12:13:49;101373.75;;;26.76;62.20
67015;BME280;1033;52.560;13.374;2023-08-17T12:20:26;101368.91;;;27.24;60.61
67015;BME280;1033;52.560;13.374;2023-08-17T12:22:59;101362.16;;;27.30;60.52
67015;BME280;1033;52.560;13.374;2023-08-17T12:25:29;101350.03;;;27.21;60.16
67015;BME280;1033;52.560;13.374;2023-08-17T12:27:59;101353.91;;;26.88;62.21
67015;BME280;1033;52.560;13.374;2023-08-17T12:30:31;101360.41;;;27.53;60.88
67015;BME280;1033;52.560;13.374;2023-08-17T12:33:00;101366.28;;;27.65;60.73
67015;BME280;1033;52.560;13.374;2023-08-17T12:35:30;101365.78;;;27.63;59.74
67015;BME280;1033;52.560;13.374;2023-08-17T12:38:00;101360.94;;;28.15;58.47
67015;BME280;1033;52.560;13.374;2023-08-17T12:40:29;101358.69;;;27.84;59.13
67015;BME280;1033;52.560;13.374;2023-08-17T12:42:58;101352.00;;;27.85;59.18
67015;BME280;1033;52.560;13.374;2023-08-17T12:45:29;101346.09;;;27.41;60.94
67015;BME280;1033;52.560;13.374;2023-08-17T12:48:00;101345.97;;;27.51;60.87
67015;BME280;1033;52.560;13.374;2023-08-17T12:50:30;101344.06;;;27.46;61.47
67015;BME280;1033;52.560;13.374;2023-08-17T12:52:59;101343.78;;;27.94;59.94
67015;BME280;1033;52.560;13.374;2023-08-17T12:55:28;101350.31;;;28.30;58.83
67015;BME280;1033;52.560;13.374;2023-08-17T12:58:00;101346.81;;;28.25;59.10
67015;BME280;1033;52.560;13.374;2023-08-17T13:00:32;101341.66;;;28.18;58.76
67015;BME280;1033;52.560;13.374;2023-08-17T13:03:01;101343.13;;;28.16;59.10
67015;BME280;1033;52.560;13.374;2023-08-17T13:05:31;101333.75;;;28.12;59.66
67015;BME280;1033;52.560;13.374;2023-08-17T13:08:00;101338.53;;;28.06;59.65
67015;BME280;1033;52.560;13.374;2023-08-17T13:10:29;101329.72;;;27.58;61.34
67015;BME280;1033;52.560;13.374;2023-08-17T13:12:58;101332.84;;;27.84;61.28
67015;BME280;1033;52.560;13.374;2023-08-17T13:15:32;101323.53;;;27.61;61.41